Time;durP1;ratioP1;P1;durP2;ratioP2;P2;SDS_P1;SDS_P2;PMS_P1;PMS_P2;Temp;Humidity;BMP_temperature;BMP_pressure;BME280_temperature;BME280_humidity;BME280_pressure;Samples;Min_cycle;Max_cycle;Signal;HPM_P1;HPM_P2
2023/08/20 00:00:32;;;;;;;17.97;8.43;;;;;;;23.71;58.06;100698.20;125068;1105;104179;-82
2023/08/20 00:03:24;;;;;;;17.10;8.67;;;;;;;23.58;58.37;100698.39;125257;1102;104168;-83
2023/08/20 00:05:56;;;;;;;16.13;8.57;;;;;;;23.48;58.75;100699.42;125260;1102;101945;-82
2023/08/20 00:08:28;;;;;;;16.20;8.90;;;;;;;23.43;58.87;100706.64;125197;1102;102593;-81
2023/08/20 00:10:59;;;;;;;18.13;8.57;;;;;;;23.40;58.52;100702.20;125069;1102;108156;-82
2023/08/20 00:13:31;;;;;;;18.43;8.97;;;;;;;23.39;58.71;100704.91;125123;1102;104299;-81
2023/08/20 00:16:03;;;;;;;19.37;8.63;;;;;;;23.34;59.65;100696.94;125200;1102;102016;-82
2023/08/20 00:18:36;;;;;;;22.67;9.67;;;;;;;23.26;59.25;100701.52;125236;1102;104290;-81
2023/08/20 00:21:09;;;;;;;21.07;9.50;;;;;;;23.21;60.01;100708.73;125225;1102;104185;-81
2023/08/20 00:23:39;;;;;;;;;;;;;;;23.15;60.16;100696.31;125205;1102;102046;-82
2023/08/20 00:26:12;;;;;;;23.17;9.60;;;;;;;23.09;60.43;100693.70;125177;1102;104290;-82
2023/08/20 00:28:43;;;;;;;18.90;9.10;;;;;;;23.05;60.32;100705.34;125380;1104;104191;-81
2023/08/20 00:31:14;;;;;;;18.00;9.43;;;;;;;22.99;60.59;100695.59;125164;1101;101814;-82
2023/08/20 00:33:47;;;;;;;19.30;9.23;;;;;;;22.96;61.34;100698.30;124690;1102;104203;-82
2023/08/20 00:36:18;;;;;;;15.70;9.17;;;;;;;22.92;61.20;100694.80;125045;1105;101944;-81
2023/08/20 00:38:50;;;;;;;20.00;9.40;;;;;;;22.87;61.17;100693.94;125287;1104;104169;-84
2023/08/20 00:41:22;;;;;;;17.90;9.00;;;;;;;22.85;61.56;100695.76;125235;1102;102456;-84
2023/08/20 00:43:53;;;;;;;19.97;9.10;;;;;;;22.83;61.04;100693.99;125282;1102;101886;-83
2023/08/20 00:46:25;;;;;;;19.30;8.73;;;;;;;22.77;61.48;100697.64;125186;1106;104198;-82
2023/08/20 00:48:57;;;;;;;17.43;8.90;;;;;;;22.73;61.68;100695.89;125139;1105;101987;-84
2023/08/20 00:51:29;;;;;;;18.83;9.00;;;;;;;22.70;61.91;100696.81;125228;1102;104172;-82
2023/08/20 00:54:00;;;;;;;18.27;8.80;;;;;;;22.68;61.76;100695.95;125165;1105;101817;-83
2023/08/20 00:56:32;;;;;;;17.07;8.87;;;;;;;22.65;61.93;100695.98;125192;1102;104319;-83
2023/08/20 00:59:05;;;;;;;17.73;9.07;;;;;;;22.63;62.23;100694.25;125217;1102;104230;-83
2023/08/20 01:01:37;;;;;;;17.27;8.97;;;;;;;22.59;62.39;100688.02;125081;1102;104101;-83
2023/08/20 01:04:09;;;;;;;16.23;8.40;;;;;;;22.54;62.62;100684.52;125232;1101;104277;-83
2023/08/20 01:06:52;;;;;;;17.33;8.57;;;;;;;22.53;62.80;100693.44;125611;1102;104268;-83
2023/08/20 01:09:38;;;;;;;16.60;8.30;;;;;;;22.50;62.58;100686.36;126476;1101;101727;-83
2023/08/20 01:12:11;;;;;;;18.47;9.00;;;;;;;22.50;62.69;100689.03;125121;1103;102122;-83
2023/08/20 01:14:42;;;;;;;14.17;8.27;;;;;;;22.50;63.03;100688.13;125190;1102;104198;-84
2023/08/20 01:17:14;;;;;;;16.73;8.50;;;;;;;22.48;62.21;100688.14;125193;1105;101867;-83
2023/08/20 01:19:47;;;;;;;14.77;8.57;;;;;;;22.47;62.62;100685.48;125164;1103;101976;-83
2023/08/20 01:22:43;;;;;;;16.05;8.40;;;;;;;22.43;62.64;100688.19;124916;1102;102401;-82
2023/08/20 01:25:25;;;;;;;20.77;9.00;;;;;;;22.40;63.20;100690.02;125105;1106;101921;-81
2023/08/20 01:28:09;;;;;;;20.03;8.83;;;;;;;22.36;62.90;100689.17;125228;1102;102306;-82
2023/08/20 01:30:39;;;;;;;;;;;;;;;22.33;63.40;100688.29;125209;1102;104280;-82
2023/08/20 01:33:12;;;;;;;15.80;8.63;;;;;;;22.29;63.16;100687.41;125223;1102;104172;-82
2023/08/20 01:35:44;;;;;;;17.70;10.25;;;;;;;22.24;63.92;100687.45;124947;1102;102047;-83
2023/08/20 01:38:21;;;;;;;18.33;9.13;;;;;;;22.19;64.06;100691.97;124696;1102;104341;-82
2023/08/20 01:40:53;;;;;;;27.10;10.53;;;;;;;22.15;63.67;100689.33;125193;1102;101994;-82
2023/08/20 01:43:24;;;;;;;19.83;9.07;;;;;;;22.13;64.75;100688.44;125927;1102;102010;-83
2023/08/20 01:45:55;;;;;;;16.17;8.80;;;;;;;22.10;63.82;100675.14;124654;1102;102414;-83
2023/08/20 01:48:26;;;;;;;17.87;8.83;;;;;;;22.07;64.37;100676.91;124765;1102;101794;-84
2023/08/20 01:50:58;;;;;;;17.67;9.37;;;;;;;22.02;64.39;100677.87;125617;1101;104176;-83
2023/08/20 01:53:29;;;;;;;16.60;9.40;;;;;;;21.98;64.78;100686.80;124630;1105;102175;-84
2023/08/20 01:56:00;;;;;;;16.13;8.17;;;;;;;21.98;65.18;100702.83;125187;1102;104174;-84
2023/08/20 01:58:32;;;;;;;16.13;9.00;;;;;;;22.04;64.29;100692.97;125249;1102;101816;-84
2023/08/20 02:01:04;;;;;;;18.27;8.27;;;;;;;22.07;64.15;100692.08;125332;1102;104210;-82
2023/08/20 02:03:37;;;;;;;17.17;8.63;;;;;;;22.07;64.63;100689.41;126191;1101;101938;-83
2023/08/20 02:06:09;;;;;;;15.88;8.63;;;;;;;22.03;65.32;100684.97;125177;1105;101928;-84
2023/08/20 02:08:40;;;;;;;18.20;8.73;;;;;;;22.01;64.43;100692.13;125198;1102;104306;-81
2023/08/20 02:11:12;;;;;;;15.90;8.13;;;;;;;21.98;65.37;100698.37;125149;1102;101849;-84
2023/08/20 02:13:43;;;;;;;15.47;8.50;;;;;;;21.94;65.06;100698.41;125295;1102;102358;-84
2023/08/20 02:16:16;;;;;;;16.77;8.87;;;;;;;21.87;65.94;100685.09;125278;1105;101919;-84
2023/08/20 02:18:47;;;;;;;16.60;8.67;;;;;;;21.82;66.52;100697.61;125951;1101;102185;-83
2023/08/20 02:21:20;;;;;;;15.70;8.63;;;;;;;21.79;66.21;100700.30;125758;1101;101752;-83
2023/08/20 02:23:51;;;;;;;18.17;9.03;;;;;;;21.79;65.84;100702.09;125182;1102;109446;-85
2023/08/20 02:26:22;;;;;;;20.37;8.63;;;;;;;21.79;65.22;100705.64;125280;1105;104235;-84
2023/08/20 02:28:54;;;;;;;14.93;8.60;;;;;;;21.78;66.44;100708.33;125479;1102;101979;-84
2023/08/20 02:31:25;;;;;;;16.13;8.60;;;;;;;21.77;66.02;100711.87;125378;1102;102022;-85
2023/08/20 02:33:57;;;;;;;15.77;8.23;;;;;;;21.77;65.42;100710.12;125203;1102;102093;-85
2023/08/20 02:36:29;;;;;;;17.37;8.67;;;;;;;21.79;65.64;100712.78;125382;1102;104227;-86
2023/08/20 02:39:00;;;;;;;16.10;8.33;;;;;;;21.80;66.08;100718.11;125243;1106;102054;-84
2023/08/20 02:41:32;;;;;;;15.63;8.10;;;;;;;21.82;65.38;100718.10;125269;1105;102017;-85
2023/08/20 02:44:04;;;;;;;17.03;9.40;;;;;;;21.81;66.47;100721.66;125204;1105;104178;-84
2023/08/20 02:46:38;;;;;;;16.53;8.90;;;;;;;21.78;65.99;100717.22;125718;1102;101868;-84
2023/08/20 02:49:09;;;;;;;17.80;8.40;;;;;;;21.76;66.49;100719.02;125397;1102;102309;-81
2023/08/20 02:51:42;;;;;;;18.00;9.23;;;;;;;21.74;66.01;100718.16;125710;1102;104239;-83
2023/08/20 02:54:14;;;;;;;18.40;8.60;;;;;;;21.70;65.99;100719.94;125334;1102;101963;-84
2023/08/20 02:56:45;;;;;;;19.03;9.00;;;;;;;21.67;67.01;100719.95;125328;1102;104192;-83
2023/08/20 02:59:16;;;;;;;20.00;8.73;;;;;;;21.64;66.83;100725.31;125425;1102;104198;-84
2023/08/20 03:01:48;;;;;;;16.00;8.75;;;;;;;21.61;67.28;100725.33;125182;1102;101832;-83
2023/08/20 03:04:19;;;;;;;17.50;8.53;;;;;;;21.60;67.36;100720.00;125372;1102;101760;-83
2023/08/20 03:06:50;;;;;;;15.40;8.40;;;;;;;21.52;67.52;100707.61;125156;1105;104349;-84
2023/08/20 03:09:22;;;;;;;18.17;9.37;;;;;;;21.51;67.14;100707.62;125388;1102;102094;-82
2023/08/20 03:11:53;;;;;;;19.75;9.70;;;;;;;21.50;67.30;100712.08;125379;1102;104268;-81
2023/08/20 03:14:25;;;;;;;18.37;9.47;;;;;;;21.49;67.74;100710.30;124747;1101;102089;-82
2023/08/20 03:16:56;;;;;;;16.20;8.93;;;;;;;21.47;67.15;100716.49;124745;1102;104239;-81
2023/08/20 03:19:27;;;;;;;17.55;8.70;;;;;;;21.44;67.47;100711.17;125213;1102;102329;-82
2023/08/20 03:21:59;;;;;;;17.17;8.53;;;;;;;21.40;67.53;100712.98;124694;1100;104427;-82
2023/08/20 03:24:30;;;;;;;21.97;9.33;;;;;;;21.36;67.80;100709.45;125476;1102;104207;-82
2023/08/20 03:27:02;;;;;;;16.07;8.40;;;;;;;21.33;67.91;100709.47;125241;1102;101766;-82
2023/08/20 03:29:34;;;;;;;16.80;8.55;;;;;;;21.34;67.17;100707.67;125204;1105;102134;-82
2023/08/20 03:32:06;;;;;;;16.33;8.83;;;;;;;21.33;66.88;100708.56;124651;1105;104249;-83
2023/08/20 03:34:38;;;;;;;15.97;8.43;;;;;;;21.32;67.44;100701.47;125111;1105;104331;-82
2023/08/20 03:37:09;;;;;;;19.10;9.20;;;;;;;21.33;67.68;100697.88;124782;1105;101868;-83
2023/08/20 03:39:41;;;;;;;16.93;8.47;;;;;;;21.34;67.41;100699.67;124720;1102;102071;-83
2023/08/20 03:42:12;;;;;;;16.77;9.00;;;;;;;21.35;67.88;100699.66;124726;1102;101868;-84
2023/08/20 03:44:43;;;;;;;18.30;9.55;;;;;;;21.37;67.34;100702.32;124781;1102;104313;-84
2023/08/20 03:47:15;;;;;;;16.30;8.60;;;;;;;21.39;67.06;100702.31;125309;1102;104334;-84
2023/08/20 03:49:47;;;;;;;16.77;9.13;;;;;;;21.40;67.42;100698.77;125298;1103;101887;-84
2023/08/20 03:52:18;;;;;;;16.97;9.43;;;;;;;21.42;67.99;100710.30;125663;1102;102016;-84
2023/08/20 03:54:50;;;;;;;18.53;9.37;;;;;;;21.48;66.66;100708.48;126222;1102;102077;-85
2023/08/20 03:57:22;;;;;;;18.83;9.43;;;;;;;21.52;67.64;100710.28;126435;1101;103801;-83
2023/08/20 03:59:53;;;;;;;18.40;9.23;;;;;;;21.53;67.96;100708.48;126200;1102;101588;-84
2023/08/20 04:02:24;;;;;;;17.33;8.83;;;;;;;21.51;67.31;100697.81;126510;1102;104277;-83
2023/08/20 04:04:58;;;;;;;19.73;9.93;;;;;;;21.48;68.04;100712.94;124922;1102;104178;-82
2023/08/20 04:07:30;;;;;;;18.57;9.25;;;;;;;21.45;67.95;100707.63;125634;1102;104267;-83
2023/08/20 04:10:01;;;;;;;19.57;9.33;;;;;;;21.44;67.87;100711.17;125204;1102;104338;-83
2023/08/20 04:12:33;;;;;;;18.50;9.40;;;;;;;21.46;68.61;100710.28;125233;1102;101871;-86
2023/08/20 04:15:05;;;;;;;17.47;9.30;;;;;;;21.46;67.84;100702.27;125175;1102;104211;-87
2023/08/20 04:17:37;;;;;;;20.02;9.90;;;;;;;21.49;67.96;100702.28;125188;1102;104176;-85
2023/08/20 04:20:11;;;;;;;16.87;9.20;;;;;;;21.52;68.20;100698.72;125255;1104;104261;-86
2023/08/20 04:22:43;;;;;;;17.50;9.43;;;;;;;21.54;68.61;100703.14;125247;1102;104200;-87
2023/08/20 04:25:14;;;;;;;19.07;9.07;;;;;;;21.59;68.38;100705.78;125289;1105;104331;-84
2023/08/20 04:27:45;;;;;;;16.63;9.27;;;;;;;21.63;68.21;100701.30;125276;1102;101830;-84
2023/08/20 04:30:17;;;;;;;19.53;9.80;;;;;;;21.68;68.55;100699.50;125144;1105;104092;-84
2023/08/20 04:32:48;;;;;;;15.87;9.10;;;;;;;21.72;68.37;100695.89;125186;1102;104268;-82
2023/08/20 04:35:20;;;;;;;16.90;9.17;;;;;;;21.73;68.61;100693.20;124692;1105;104297;-85
2023/08/20 04:37:52;;;;;;;18.17;8.90;;;;;;;21.78;68.59;100701.19;125153;1105;102128;-84
2023/08/20 04:40:23;;;;;;;18.43;9.00;;;;;;;21.81;68.19;100695.83;125213;1105;104195;-82
2023/08/20 04:42:55;;;;;;;16.17;9.43;;;;;;;21.85;68.35;100700.26;125303;1102;104220;-86
2023/08/20 04:45:27;;;;;;;17.10;8.17;;;;;;;21.92;68.35;100697.54;125343;1102;102238;-84
2023/08/20 04:47:58;;;;;;;16.30;9.00;;;;;;;21.99;67.86;100709.96;125098;1102;101932;-83
2023/08/20 04:50:31;;;;;;;17.63;9.60;;;;;;;22.05;68.25;100707.24;125142;1105;104296;-84
2023/08/20 04:53:02;;;;;;;18.83;9.43;;;;;;;22.13;68.03;100704.47;125808;1105;104239;-86
2023/08/20 04:55:34;;;;;;;18.60;8.67;;;;;;;22.21;68.15;100699.97;125528;1103;104095;-86
2023/08/20 04:58:06;;;;;;;17.10;9.47;;;;;;;22.30;67.54;100705.27;125827;1105;104227;-85
2023/08/20 05:00:39;;;;;;;16.70;9.00;;;;;;;22.39;67.30;100709.61;125935;1102;102061;-84
2023/08/20 05:03:15;;;;;;;19.00;9.50;;;;;;;22.45;67.40;100706.88;125836;1105;102007;-81
2023/08/20 05:05:52;;;;;;;14.90;8.80;;;;;;;22.51;67.83;100708.63;125693;1105;104296;-84
2023/08/20 05:08:24;;;;;;;18.63;8.63;;;;;;;22.57;67.78;100712.11;125652;1105;104178;-80
2023/08/20 05:10:55;;;;;;;16.00;9.30;;;;;;;22.64;67.11;100718.30;125432;1102;101820;-80
2023/08/20 05:13:26;;;;;;;15.40;8.53;;;;;;;22.71;67.26;100713.77;125417;1102;104243;-79
2023/08/20 05:15:59;;;;;;;16.43;9.23;;;;;;;22.78;67.14;100718.13;125781;1102;104249;-82
2023/08/20 05:18:30;;;;;;;16.17;9.30;;;;;;;22.83;67.28;100716.30;125849;1102;101824;-81
2023/08/20 05:21:02;;;;;;;17.57;9.23;;;;;;;22.92;67.29;100721.55;125476;1105;102292;-81
2023/08/20 05:23:34;;;;;;;17.90;8.90;;;;;;;23.01;66.80;100722.33;125891;1102;101743;-83
2023/08/20 05:26:08;;;;;;;17.23;9.03;;;;;;;23.09;66.88;100724.05;126315;1093;102601;-81
2023/08/20 05:28:39;;;;;;;17.43;9.17;;;;;;;23.19;66.90;100719.47;126045;1096;104399;-82
2023/08/20 05:31:11;;;;;;;15.20;8.60;;;;;;;23.27;66.67;100730.07;125848;1102;104143;-82
2023/08/20 05:33:43;;;;;;;16.63;8.73;;;;;;;23.34;66.15;100723.71;125179;1103;101790;-82
2023/08/20 05:36:15;;;;;;;15.03;8.87;;;;;;;23.42;66.42;100726.28;125143;1102;102394;-82
2023/08/20 05:38:47;;;;;;;17.53;8.80;;;;;;;23.49;66.21;100722.63;125434;1103;102112;-82
2023/08/20 05:41:18;;;;;;;18.90;8.53;;;;;;;23.59;65.87;100729.64;126243;1101;102044;-85
2023/08/20 05:43:52;;;;;;;16.50;8.60;;;;;;;23.68;65.90;100733.95;125424;1102;104205;-81
2023/08/20 05:46:24;;;;;;;18.10;8.80;;;;;;;23.77;65.53;100727.58;125135;1102;104331;-82
2023/08/20 05:48:55;;;;;;;17.43;9.10;;;;;;;23.86;65.22;100730.16;125206;1105;101813;-81
2023/08/20 05:51:26;;;;;;;17.30;9.10;;;;;;;23.95;65.09;100730.02;125167;1102;104363;-82
2023/08/20 05:53:58;;;;;;;15.03;8.93;;;;;;;24.03;64.74;100728.08;124798;1105;104265;-82
2023/08/20 05:56:32;;;;;;;14.10;8.47;;;;;;;24.14;64.72;100730.59;125409;1105;101784;-81
2023/08/20 05:59:04;;;;;;;18.07;8.77;;;;;;;24.26;64.55;100723.23;125256;1102;104645;-84
2023/08/20 06:01:35;;;;;;;19.30;9.07;;;;;;;24.37;64.42;100723.92;125210;1103;102314;-81
2023/08/20 06:04:07;;;;;;;15.70;8.53;;;;;;;24.46;64.41;100731.81;125215;1102;102064;-84
2023/08/20 06:06:39;;;;;;;15.37;8.83;;;;;;;24.55;64.23;100728.95;125042;1102;102015;-83
2023/08/20 06:09:11;;;;;;;20.13;8.83;;;;;;;24.65;63.85;100727.05;125044;1102;104245;-83
2023/08/20 06:11:44;;;;;;;14.90;8.67;;;;;;;24.74;63.91;100729.55;125261;1102;101791;-82
2023/08/20 06:14:15;;;;;;;15.40;8.27;;;;;;;24.86;63.95;100722.17;125221;1102;101887;-82
2023/08/20 06:16:47;;;;;;;20.37;9.00;;;;;;;24.96;63.49;100715.68;125163;1102;104221;-83
2023/08/20 06:19:18;;;;;;;17.37;8.77;;;;;;;25.06;63.50;100714.59;125187;1102;101856;-83
2023/08/20 06:21:50;;;;;;;16.00;8.20;;;;;;;25.17;63.37;100718.86;126157;1101;102034;-84
2023/08/20 06:24:21;;;;;;;16.90;9.37;;;;;;;25.28;62.64;100716.81;125116;1102;104223;-82
2023/08/20 06:26:53;;;;;;;19.00;9.10;;;;;;;25.37;62.76;100719.34;125213;1102;102195;-82
2023/08/20 06:29:25;;;;;;;15.67;8.53;;;;;;;25.48;62.89;100719.97;125160;1102;104287;-81
2023/08/20 06:31:56;;;;;;;16.03;8.23;;;;;;;25.59;62.42;100722.41;125229;1102;104262;-83
2023/08/20 06:34:28;;;;;;;15.33;8.50;;;;;;;25.71;62.13;100721.26;125112;1105;104275;-83
2023/08/20 06:37:00;;;;;;;19.47;8.83;;;;;;;25.81;62.65;100722.78;125987;1101;102214;-82
2023/08/20 06:39:31;;;;;;;16.70;8.40;;;;;;;25.92;62.39;100716.28;125117;1102;104189;-83
2023/08/20 06:42:03;;;;;;;20.27;8.70;;;;;;;26.04;62.06;100715.11;125211;1102;104280;-82
2023/08/20 06:44:36;;;;;;;18.30;8.60;;;;;;;26.14;62.14;100717.53;125362;1105;104137;-82
2023/08/20 06:47:08;;;;;;;17.57;8.77;;;;;;;26.29;61.66;100720.77;125078;1102;102137;-82
2023/08/20 06:49:39;;;;;;;16.03;9.03;;;;;;;26.43;60.88;100718.59;125177;1102;104229;-83
2023/08/20 06:52:11;;;;;;;20.53;8.43;;;;;;;26.57;60.60;100717.31;125190;1102;102073;-82
2023/08/20 06:54:42;;;;;;;15.07;8.87;;;;;;;26.71;60.67;100717.88;125138;1102;101968;-83
2023/08/20 06:57:16;;;;;;;16.63;9.00;;;;;;;26.84;59.90;100713.89;125152;1102;101877;-82
2023/08/20 06:59:51;;;;;;;17.10;9.10;;;;;;;26.96;60.44;100714.46;125215;1102;104073;-84
2023/08/20 07:02:25;;;;;;;16.10;8.60;;;;;;;27.04;60.02;100720.53;125663;1102;104073;-82
2023/08/20 07:04:58;;;;;;;14.57;8.70;;;;;;;27.21;59.77;100711.95;125156;1102;104328;-81
2023/08/20 07:07:29;;;;;;;15.10;8.50;;;;;;;27.39;59.38;100722.17;125076;1105;104224;-83
2023/08/20 07:10:00;;;;;;;17.20;8.53;;;;;;;27.59;58.49;100716.17;125960;1101;104255;-83
2023/08/20 07:12:32;;;;;;;14.80;8.53;;;;;;;27.72;58.49;100713.08;125157;1102;102152;-84
2023/08/20 07:15:03;;;;;;;16.73;8.70;;;;;;;27.89;58.50;100721.53;125143;1102;104188;-82
2023/08/20 07:17:35;;;;;;;16.57;8.23;;;;;;;28.10;58.37;100713.69;125100;1105;104163;-83
2023/08/20 07:20:09;;;;;;;15.47;8.37;;;;;;;28.31;58.01;100712.95;125202;1105;102019;-82
2023/08/20 07:22:43;;;;;;;18.67;8.80;;;;;;;28.45;57.71;100714.27;125192;1102;102045;-83
2023/08/20 07:25:14;;;;;;;17.70;8.80;;;;;;;28.65;56.88;100705.49;125240;1102;104255;-83
2023/08/20 07:27:46;;;;;;;16.37;8.43;;;;;;;28.77;56.55;100698.77;125255;1102;104198;-83
2023/08/20 07:30:17;;;;;;;15.83;8.00;;;;;;;28.91;56.29;100703.66;125126;1105;102412;-83
2023/08/20 07:32:49;;;;;;;15.80;8.03;;;;;;;29.02;56.12;100707.70;125192;1102;102384;-82
2023/08/20 07:35:20;;;;;;;16.97;8.50;;;;;;;29.14;55.73;100702.77;125994;1101;104079;-82
2023/08/20 07:37:51;;;;;;;17.20;8.17;;;;;;;29.36;54.97;100701.03;125232;1102;102619;-84
2023/08/20 07:40:23;;;;;;;14.90;8.30;;;;;;;29.61;54.22;100702.77;125330;1102;104211;-84
2023/08/20 07:42:54;;;;;;;14.03;7.97;;;;;;;29.75;54.06;100697.66;125225;1102;102083;-85
2023/08/20 07:45:26;;;;;;;16.93;8.13;;;;;;;29.89;54.18;100701.66;125147;1103;101968;-87
2023/08/20 07:47:58;;;;;;;12.87;8.10;;;;;;;30.11;53.75;100702.50;125245;1102;104210;-84
2023/08/20 07:50:31;;;;;;;13.73;7.67;;;;;;;30.34;53.57;100688.92;125250;1105;104203;-85
2023/08/20 07:53:03;;;;;;;16.30;7.90;;;;;;;30.64;52.42;100689.43;125704;1102;104264;-86
2023/08/20 07:55:34;;;;;;;17.03;7.40;;;;;;;30.80;51.97;100689.61;125228;1102;101789;-83
2023/08/20 07:58:06;;;;;;;16.40;7.90;;;;;;;30.95;51.02;100677.20;125169;1105;104188;-83
2023/08/20 08:00:37;;;;;;;13.03;7.17;;;;;;;31.18;50.79;100681.53;125057;1102;107117;-85
2023/08/20 08:03:09;;;;;;;13.17;7.40;;;;;;;31.45;48.54;100679.34;125247;1102;101807;-83
2023/08/20 08:05:40;;;;;;;17.47;7.47;;;;;;;31.61;48.38;100684.05;126083;1104;104286;-82
2023/08/20 08:08:12;;;;;;;15.57;7.53;;;;;;;31.70;47.32;100686.31;125276;1102;102028;-83
2023/08/20 08:10:44;;;;;;;14.10;6.97;;;;;;;31.75;47.75;100680.66;125235;1102;118236;-85
2023/08/20 08:13:17;;;;;;;13.28;7.30;;;;;;;31.72;47.47;100679.83;125392;1102;101811;-84
2023/08/20 08:15:49;;;;;;;13.90;6.90;;;;;;;31.74;47.46;100679.75;125460;1102;101817;-85
2023/08/20 08:18:21;;;;;;;16.13;6.50;;;;;;;31.87;47.44;100680.91;125408;1102;101791;-86
2023/08/20 08:20:53;;;;;;;13.10;6.50;;;;;;;32.01;46.77;100673.91;125375;1102;102051;-84
2023/08/20 08:23:24;;;;;;;13.60;7.00;;;;;;;32.14;46.34;100669.62;126193;1101;101935;-82
2023/08/20 08:25:56;;;;;;;12.90;6.75;;;;;;;32.30;46.00;100674.26;125138;1102;104347;-84
2023/08/20 08:28:27;;;;;;;11.87;6.80;;;;;;;32.34;45.73;100668.59;125203;1102;104175;-82
2023/08/20 08:30:59;;;;;;;12.50;6.60;;;;;;;32.46;45.41;100661.64;125136;1105;104194;-84
2023/08/20 08:33:30;;;;;;;13.40;6.47;;;;;;;32.60;44.31;100661.77;125252;1102;102189;-84
2023/08/20 08:36:01;;;;;;;13.80;6.50;;;;;;;32.64;44.44;100665.22;125417;1102;102428;-85
2023/08/20 08:38:33;;;;;;;10.00;6.47;;;;;;;32.73;43.13;100658.42;125208;1102;104380;-83
2023/08/20 08:41:11;;;;;;;14.17;6.77;;;;;;;32.77;41.51;100663.60;124804;1105;101844;-84
2023/08/20 08:43:42;;;;;;;11.00;6.17;;;;;;;32.84;42.31;100650.55;125213;1102;104284;-82
2023/08/20 08:46:17;;;;;;;13.50;6.67;;;;;;;32.91;41.77;100646.55;125214;1102;102170;-85
2023/08/20 08:51:35;;;;;;;12.97;6.27;;;;;;;33.03;41.63;100647.67;126775;1101;107911;-82
2023/08/20 08:54:05;;;;;;;;;;;;;;;33.10;42.09;100645.52;126524;1102;101890;-82
2023/08/20 08:56:36;;;;;;;12.47;5.97;;;;;;;33.18;41.17;100645.08;125762;1102;102161;-80
2023/08/20 08:59:07;;;;;;;11.17;6.10;;;;;;;33.28;41.11;100643.61;126357;1102;101722;-82
2023/08/20 09:01:41;;;;;;;10.80;6.20;;;;;;;33.42;41.12;100642.81;126515;1101;101978;-80
2023/08/20 09:04:13;;;;;;;10.80;6.30;;;;;;;33.45;39.58;100642.64;126168;1101;104332;-82
2023/08/20 09:06:52;;;;;;;13.20;6.23;;;;;;;33.56;39.98;100642.88;126125;1102;104190;-80
2023/08/20 09:09:24;;;;;;;10.87;6.30;;;;;;;33.58;39.20;100642.80;125002;1102;104220;-79
2023/08/20 09:11:55;;;;;;;11.97;6.20;;;;;;;33.67;39.09;100637.70;124972;1102;104275;-81
2023/08/20 09:14:30;;;;;;;10.40;5.87;;;;;;;33.82;38.86;100635.94;124891;1102;102032;-83
2023/08/20 09:17:03;;;;;;;15.33;5.90;;;;;;;33.97;38.66;100634.16;124857;1102;102121;-81
2023/08/20 09:19:39;;;;;;;13.18;6.40;;;;;;;34.05;37.73;100633.69;124792;1102;104185;-83
2023/08/20 09:22:10;;;;;;;15.57;6.17;;;;;;;34.20;37.76;100620.97;124768;1102;110601;-83
2023/08/20 09:24:45;;;;;;;15.77;6.00;;;;;;;34.32;37.92;100622.97;124859;1102;101817;-81
2023/08/20 09:27:17;;;;;;;11.97;6.03;;;;;;;34.32;36.77;100622.10;126078;1101;104262;-80
2023/08/20 09:29:50;;;;;;;10.30;6.37;;;;;;;34.28;36.86;100626.84;126487;1104;104175;-85
2023/08/20 09:32:23;;;;;;;11.13;6.20;;;;;;;34.36;36.65;100619.09;125030;1102;101874;-81
2023/08/20 09:34:53;;;;;;;;;;;;;;;34.47;37.40;100622.97;126308;1102;104140;-81
2023/08/20 09:37:25;;;;;;;10.57;5.70;;;;;;;34.52;36.74;100623.58;125064;1101;104221;-80
2023/08/20 09:39:57;;;;;;;14.17;6.13;;;;;;;34.51;36.25;100624.55;125329;1102;102024;-82
2023/08/20 09:42:32;;;;;;;8.05;5.50;;;;;;;34.53;36.12;100619.86;124748;1102;102032;-81
2023/08/20 09:45:06;;;;;;;12.50;5.17;;;;;;;34.56;35.85;100615.12;124969;1105;104287;-80
2023/08/20 09:47:39;;;;;;;13.10;5.90;;;;;;;34.61;35.93;100617.55;124933;1102;102118;-81
2023/08/20 09:50:13;;;;;;;12.43;5.37;;;;;;;34.66;35.49;100609.09;125030;1102;101874;-77
2023/08/20 09:52:50;;;;;;;10.73;5.00;;;;;;;34.62;35.10;100615.70;125007;1102;104191;-80
2023/08/20 09:55:29;;;;;;;11.07;5.03;;;;;;;34.54;34.66;100608.88;124966;1105;102397;-81
2023/08/20 09:58:02;;;;;;;9.30;4.97;;;;;;;34.54;34.24;100621.62;125657;1102;104224;-80
2023/08/20 10:00:34;;;;;;;11.73;5.47;;;;;;;34.45;33.90;100611.31;125212;1102;102071;-81
2023/08/20 10:03:06;;;;;;;6.70;5.03;;;;;;;34.39;33.32;100610.73;126069;1101;101707;-80
2023/08/20 10:05:39;;;;;;;8.85;4.95;;;;;;;34.52;33.60;100602.66;125396;1102;104657;-79
2023/08/20 10:08:09;;;;;;;;;;;;;;;34.69;32.79;100606.17;124847;1102;104181;-79
2023/08/20 10:10:41;;;;;;;9.93;5.73;;;;;;;34.87;33.20;100595.95;124542;1103;104185;-79
2023/08/20 10:13:13;;;;;;;8.53;5.23;;;;;;;35.08;33.38;100600.00;124640;1102;110692;-79
2023/08/20 10:15:45;;;;;;;13.25;5.50;;;;;;;35.12;32.26;100595.21;125907;1102;102032;-81
2023/08/20 10:18:19;;;;;;;13.65;5.35;;;;;;;35.09;31.74;100600.86;124868;1102;102006;-81
2023/08/20 10:20:52;;;;;;;9.77;5.13;;;;;;;35.13;32.35;100607.02;126898;1104;101913;-80
2023/08/20 10:23:23;;;;;;;;;;;;;;;35.11;30.99;100607.12;125888;1102;102097;-81
2023/08/20 10:26:07;;;;;;;10.27;5.23;;;;;;;35.17;31.71;100595.80;125817;1105;101729;-81
2023/08/20 10:28:39;;;;;;;14.20;5.43;;;;;;;35.29;31.52;100594.13;125412;1102;101836;-81
2023/08/20 10:31:12;;;;;;;8.25;4.90;;;;;;;35.40;31.57;100594.27;126201;1101;101906;-82
2023/08/20 10:33:55;;;;;;;8.20;4.93;;;;;;;35.58;31.59;100596.77;124906;1102;108078;-81
2023/08/20 10:36:28;;;;;;;7.60;5.20;;;;;;;35.75;31.75;100592.88;125434;1102;101827;-81
2023/08/20 10:39:05;;;;;;;7.00;5.00;;;;;;;35.71;31.24;100586.73;125646;1101;101905;-80
2023/08/20 10:41:36;;;;;;;9.03;5.30;;;;;;;35.69;31.12;100585.12;126553;1102;101701;-78
2023/08/20 10:44:08;;;;;;;8.60;5.03;;;;;;;35.67;31.34;100579.77;126668;1102;117801;-79
2023/08/20 10:46:52;;;;;;;8.40;4.83;;;;;;;35.67;30.62;100579.77;126953;1101;101746;-80
2023/08/20 10:49:23;;;;;;;8.70;5.40;;;;;;;35.71;30.80;100581.28;125934;1102;102602;-80
2023/08/20 10:51:56;;;;;;;7.87;5.20;;;;;;;35.62;30.24;100576.45;125521;1104;101855;-85
2023/08/20 10:54:28;;;;;;;8.63;4.90;;;;;;;35.58;30.06;100578.53;126068;1101;101852;-82
2023/08/20 10:57:01;;;;;;;8.57;4.97;;;;;;;35.53;29.57;100577.97;125207;1102;104127;-83
2023/08/20 10:59:34;;;;;;;9.70;4.90;;;;;;;35.55;30.08;100578.73;125602;1102;104176;-84
2023/08/20 11:02:06;;;;;;;;;;;;;;;35.58;30.07;100575.80;125812;1102;102062;-82
2023/08/20 11:04:39;;;;;;;7.27;5.27;;;;;;;35.61;30.31;100581.05;125870;1102;101858;-81
2023/08/20 11:07:10;;;;;;;11.50;5.23;;;;;;;35.68;30.26;100578.77;125348;1102;102290;-80
2023/08/20 11:09:44;;;;;;;8.90;5.23;;;;;;;35.66;29.86;100578.00;125497;1102;104105;-78
2023/08/20 11:12:17;;;;;;;14.47;5.27;;;;;;;35.66;29.94;100577.14;125959;1101;102189;-81
2023/08/20 11:14:48;;;;;;;8.30;5.37;;;;;;;35.61;30.00;100574.72;125904;1102;102083;-81
2023/08/20 11:17:20;;;;;;;11.10;5.17;;;;;;;35.63;29.61;100567.30;125336;1102;102057;-80
2023/08/20 11:19:52;;;;;;;7.83;4.90;;;;;;;35.72;29.81;100563.94;124993;1102;102083;-80
2023/08/20 11:22:23;;;;;;;11.43;5.00;;;;;;;35.77;29.65;100559.06;125084;1102;102325;-80
2023/08/20 11:24:56;;;;;;;10.07;5.17;;;;;;;35.85;29.35;100546.74;126198;1102;107791;-80
2023/08/20 11:27:30;;;;;;;8.23;5.13;;;;;;;35.99;29.32;100549.37;125389;1102;102125;-82
2023/08/20 11:30:04;;;;;;;8.50;5.10;;;;;;;35.98;29.23;100547.61;125905;1102;103412;-78